Time;durP1;ratioP1;P1;durP2;ratioP2;P2;SDS_P1;SDS_P2;PMS_P1;PMS_P2;Temp;Humidity;BMP_temperature;BMP_pressure;BME280_temperature;BME280_humidity;BME280_pressure;Samples;Min_cycle;Max_cycle;Signal;HPM_P1;HPM_P2
2021/03/19 00:00:42;;;;;;;6.65;6.05;;;;;;;2.80;91.96;99278.45;1709333;84;21182;-62
2021/03/19 00:03:11;;;;;;;6.70;6.00;;;;;;;2.77;92.37;99276.23;1732262;82;21201;-63
2021/03/19 00:05:39;;;;;;;7.90;7.20;;;;;;;2.82;92.72;99273.26;1721662;82;21196;-65
2021/03/19 00:08:08;;;;;;;9.43;7.42;;;;;;;2.89;92.81;99276.69;1685888;84;21222;-65
2021/03/19 00:10:36;;;;;;;6.42;5.83;;;;;;;2.92;92.77;99270.98;1705484;84;21207;-66
2021/03/19 00:13:09;;;;;;;8.05;5.53;;;;;;;2.89;92.54;99265.25;1705965;84;21191;-64
2021/03/19 00:15:38;;;;;;;6.67;6.00;;;;;;;2.86;92.68;99262.52;1706092;84;21107;-63
2021/03/19 00:18:07;;;;;;;7.15;6.45;;;;;;;2.84;92.68;99259.75;1706553;84;21155;-63
2021/03/19 00:20:40;;;;;;;7.25;6.55;;;;;;;2.84;92.65;99262.41;1706078;84;21654;-64
2021/03/19 00:23:07;;;;;;;4.78;4.37;;;;;;;2.84;92.76;99263.22;1693583;84;21247;-66
2021/03/19 00:25:36;;;;;;;6.58;5.95;;;;;;;2.84;92.91;99268.53;1690624;83;21181;-64
2021/03/19 00:28:05;;;;;;;6.28;5.62;;;;;;;2.82;92.88;99264.47;1695183;84;21795;-62
2021/03/19 00:30:33;;;;;;;8.78;6.97;;;;;;;2.86;93.12;99263.84;1705374;82;21154;-65
2021/03/19 00:33:02;;;;;;;6.35;5.75;;;;;;;2.88;92.88;99263.61;1720903;83;21213;-66
2021/03/19 00:35:30;;;;;;;6.08;5.50;;;;;;;2.89;92.92;99268.72;1720828;83;21372;-63
2021/03/19 00:37:58;;;;;;;6.12;5.30;;;;;;;2.87;92.82;99261.49;1720731;83;21144;-62
2021/03/19 00:40:26;;;;;;;9.63;8.60;;;;;;;2.88;92.73;99271.58;1720514;83;21167;-64
2021/03/19 00:42:54;;;;;;;7.78;7.00;;;;;;;2.84;92.55;99268.53;1720715;83;21138;-62
2021/03/19 00:45:23;;;;;;;6.70;6.10;;;;;;;2.84;92.68;99259.23;1707507;83;21196;-64
2021/03/19 00:47:51;;;;;;;6.17;5.58;;;;;;;2.86;92.74;99270.99;1691845;84;21378;-64
2021/03/19 00:50:32;;;;;;;6.90;6.30;;;;;;;2.85;92.72;99271.50;1691782;84;21101;-63
2021/03/19 00:53:00;;;;;;;5.67;4.97;;;;;;;2.85;92.75;99264.86;1712872;83;21180;-68
2021/03/19 00:55:27;;;;;;;6.75;6.12;;;;;;;2.85;92.66;99264.86;1716409;83;21056;-64
2021/03/19 00:57:56;;;;;;;6.37;5.78;;;;;;;2.82;92.63;99258.66;1716580;83;21200;-63
2021/03/19 01:00:27;;;;;;;7.65;6.60;;;;;;;2.80;92.57;99251.91;1717438;83;21381;-64
2021/03/19 01:02:55;;;;;;;8.43;7.37;;;;;;;2.71;92.39;99258.48;1710663;83;21225;-65
2021/03/19 01:05:39;;;;;;;8.10;6.55;;;;;;;2.66;92.52;99261.77;1691824;84;21630;-65
2021/03/19 01:08:07;;;;;;;;;;;;;;;2.66;92.63;99255.64;1695048;83;21583;-62
2021/03/19 01:10:47;;;;;;;6.10;5.50;;;;;;;2.69;92.89;99257.35;1694263;84;20283;-65
2021/03/19 01:13:15;;;;;;;7.62;6.28;;;;;;;2.72;93.01;99250.31;1701313;83;21214;-64
2021/03/19 01:15:44;;;;;;;12.35;8.25;;;;;;;2.74;92.90;99250.09;1718854;83;21170;-62
2021/03/19 01:18:15;;;;;;;17.87;11.90;;;;;;;2.72;92.69;99247.66;1720618;83;21134;-63
2021/03/19 01:20:46;;;;;;;20.60;14.13;;;;;;;2.70;92.59;99244.89;1718746;82;21663;-63
2021/03/19 01:23:15;;;;;;;20.55;13.60;;;;;;;2.59;92.33;99243.19;1706634;84;21198;-64
2021/03/19 01:25:43;;;;;;;15.65;11.25;;;;;;;2.49;92.48;99248.66;1706475;84;21406;-64
2021/03/19 01:28:14;;;;;;;19.92;12.68;;;;;;;2.46;92.74;99253.03;1706641;84;21352;-63
2021/03/19 01:30:41;;;;;;;17.15;10.08;;;;;;;2.43;92.97;99254.79;1689989;84;21753;-64
2021/03/19 01:33:08;;;;;;;11.10;7.03;;;;;;;2.42;93.02;99257.14;1689950;84;21149;-64
2021/03/19 01:35:38;;;;;;;13.65;9.65;;;;;;;2.37;93.01;99257.76;1708644;83;21568;-64
2021/03/19 01:38:06;;;;;;;14.47;9.30;;;;;;;2.33;93.02;99259.20;1692896;84;21408;-63
2021/03/19 01:40:40;;;;;;;9.88;8.88;;;;;;;2.28;93.12;99255.02;1698932;84;22288;-62
2021/03/19 01:43:48;;;;;;;9.70;8.08;;;;;;;2.29;93.28;99260.64;1704902;82;21653;-67
2021/03/19 01:47:11;;;;;;;7.17;6.28;;;;;;;2.33;93.44;99259.70;1704456;84;21905;-62
2021/03/19 01:50:35;;;;;;;7.20;6.50;;;;;;;2.36;93.51;99263.27;1704793;84;21216;-63
2021/03/19 01:53:59;;;;;;;6.77;6.07;;;;;;;2.39;93.47;99263.69;1704854;84;22152;-64
2021/03/19 01:57:23;;;;;;;10.63;7.65;;;;;;;2.38;93.32;99264.70;1703522;84;21343;-63
2021/03/19 02:00:46;;;;;;;11.18;7.78;;;;;;;2.36;93.28;99265.91;1693814;84;21584;-66
2021/03/19 02:04:12;;;;;;;7.92;6.72;;;;;;;2.32;93.22;99271.34;1718786;83;21201;-63
2021/03/19 02:07:37;;;;;;;8.45;7.50;;;;;;;2.33;93.33;99273.80;1716787;83;21199;-62
2021/03/19 02:10:53;;;;;;;8.33;7.33;;;;;;;2.40;93.51;99275.13;1718982;83;22072;-62
2021/03/19 02:14:17;;;;;;;9.83;8.23;;;;;;;2.36;93.13;99270.72;1642167;83;21299;-62
2021/03/19 02:17:42;;;;;;;8.40;6.83;;;;;;;2.30;93.11;99270.23;1721164;83;21026;-65
2021/03/19 02:21:05;;;;;;;10.05;8.98;;;;;;;2.19;92.99;99277.48;1724113;83;21584;-66
2021/03/19 02:24:29;;;;;;;9.13;8.03;;;;;;;2.12;93.21;99276.16;1732915;81;21602;-63
2021/03/19 02:27:52;;;;;;;8.08;7.15;;;;;;;2.10;93.40;99284.03;1723594;83;21212;-64
2021/03/19 02:31:11;;;;;;;8.88;7.97;;;;;;;2.13;93.63;99282.28;1723414;83;21197;-64
2021/03/19 02:33:53;;;;;;;6.87;6.17;;;;;;;2.21;93.83;99289.23;1676597;85;21197;-66
2021/03/19 02:36:24;;;;;;;7.97;7.17;;;;;;;2.23;93.64;99286.66;1676096;85;21205;-64
2021/03/19 02:38:51;;;;;;;8.90;6.60;;;;;;;2.21;93.48;99294.00;1700156;83;21151;-64
2021/03/19 02:41:20;;;;;;;7.50;6.70;;;;;;;2.17;93.42;99296.25;1723213;83;21252;-66
2021/03/19 02:43:48;;;;;;;8.10;6.80;;;;;;;2.15;93.36;99298.82;1712387;83;21167;-65
2021/03/19 02:46:16;;;;;;;7.72;6.92;;;;;;;2.12;93.36;99296.05;1718825;83;21143;-65
2021/03/19 02:48:43;;;;;;;8.15;7.22;;;;;;;2.11;93.38;99302.91;1718908;83;21183;-65
2021/03/19 02:51:14;;;;;;;6.75;6.12;;;;;;;2.09;93.39;99298.30;1690062;84;21110;-67
2021/03/19 02:53:42;;;;;;;7.23;6.03;;;;;;;2.06;93.42;99302.17;1694341;84;21234;-66
2021/03/19 02:56:10;;;;;;;8.18;7.33;;;;;;;2.02;93.39;99308.91;1676141;85;21060;-65
2021/03/19 02:58:37;;;;;;;8.93;8.03;;;;;;;1.98;93.58;99302.89;1717564;83;21638;-65
2021/03/19 03:01:05;;;;;;;11.68;9.00;;;;;;;1.96;93.58;99299.64;1707231;83;21181;-65
2021/03/19 03:03:33;;;;;;;9.37;7.87;;;;;;;1.93;93.72;99299.52;1694319;84;21133;-66
2021/03/19 03:06:02;;;;;;;10.40;6.87;;;;;;;1.94;93.84;99303.81;1694353;84;21358;-64
2021/03/19 03:08:30;;;;;;;7.07;6.37;;;;;;;1.94;93.92;99305.64;1709368;82;21679;-64
2021/03/19 03:11:00;;;;;;;8.73;6.73;;;;;;;1.95;94.02;99312.59;1732539;82;21172;-65
2021/03/19 03:13:29;;;;;;;22.62;13.15;;;;;;;1.94;94.07;99312.27;1712438;83;21247;-65
2021/03/19 03:15:56;;;;;;;18.67;13.67;;;;;;;1.94;94.01;99313.09;1680337;85;21167;-63
2021/03/19 03:18:24;;;;;;;13.10;9.80;;;;;;;1.93;94.10;99311.45;1731721;82;21387;-66
2021/03/19 03:20:57;;;;;;;18.73;13.73;;;;;;;1.94;94.08;99317.58;1732350;82;21133;-64
2021/03/19 03:23:25;;;;;;;11.08;8.45;;;;;;;1.90;93.95;99312.38;1732471;82;21146;-66
2021/03/19 03:25:53;;;;;;;16.37;13.30;;;;;;;1.89;94.14;99318.70;1732325;82;21153;-65
2021/03/19 03:28:21;;;;;;;10.48;8.68;;;;;;;1.91;94.28;99320.14;1732370;82;21154;-63
2021/03/19 03:30:52;;;;;;;10.38;9.38;;;;;;;1.90;94.21;99315.85;1730279;82;21216;-66
2021/03/19 03:33:20;;;;;;;9.10;7.65;;;;;;;1.85;94.05;99318.80;1712281;83;21152;-68
2021/03/19 03:35:48;;;;;;;8.87;7.97;;;;;;;1.81;94.18;99318.39;1703074;84;21002;-66
2021/03/19 03:38:22;;;;;;;8.73;7.65;;;;;;;1.77;94.20;99328.28;1703011;84;21184;-65
2021/03/19 03:40:56;;;;;;;7.10;6.47;;;;;;;1.72;94.28;99326.23;1703351;84;27222;-66
2021/03/19 03:43:24;;;;;;;10.93;8.63;;;;;;;1.68;94.46;99323.66;1728810;82;21458;-65
2021/03/19 03:45:52;;;;;;;8.43;7.53;;;;;;;1.64;94.68;99323.25;1731559;82;21135;-66
2021/03/19 03:48:23;;;;;;;10.63;8.03;;;;;;;1.64;94.83;99326.41;1732292;82;21237;-66
2021/03/19 03:50:50;;;;;;;13.33;9.10;;;;;;;1.62;95.12;99319.19;1715956;82;21176;-67
2021/03/19 03:53:19;;;;;;;8.03;7.03;;;;;;;1.60;95.08;99326.00;1689219;83;21612;-68
2021/03/19 03:55:46;;;;;;;8.87;7.87;;;;;;;1.63;95.22;99320.28;1732350;82;21211;-65
2021/03/19 03:58:14;;;;;;;12.80;9.08;;;;;;;1.68;95.33;99321.83;1700222;82;21171;-66
2021/03/19 04:00:41;;;;;;;7.87;6.43;;;;;;;1.74;95.43;99317.05;1700276;83;21175;-66
2021/03/19 04:03:09;;;;;;;7.47;6.40;;;;;;;1.79;95.39;99316.95;1713362;83;21129;-66
2021/03/19 04:05:41;;;;;;;8.97;6.90;;;;;;;1.80;95.16;99323.89;1684591;83;21189;-65
2021/03/19 04:08:10;;;;;;;6.67;6.07;;;;;;;1.75;94.98;99323.98;1702900;83;21382;-65
2021/03/19 04:10:38;;;;;;;10.93;6.73;;;;;;;1.73;95.04;99323.87;1710834;82;21015;-65
2021/03/19 04:13:07;;;;;;;6.60;5.97;;;;;;;1.71;94.95;99317.97;1731614;82;21157;-66
2021/03/19 04:15:34;;;;;;;6.37;5.00;;;;;;;1.68;94.95;99319.68;1681080;85;21134;-67
2021/03/19 04:18:05;;;;;;;7.70;6.60;;;;;;;1.67;95.05;99321.55;1726968;82;21109;-66
2021/03/19 04:20:33;;;;;;;9.40;7.30;;;;;;;1.68;95.24;99319.17;1732035;82;22326;-66
2021/03/19 04:23:00;;;;;;;6.80;5.80;;;;;;;1.72;95.27;99320.43;1732166;82;21173;-65
2021/03/19 04:25:28;;;;;;;6.40;5.80;;;;;;;1.73;95.25;99318.06;1731284;82;21011;-67
2021/03/19 04:28:00;;;;;;;7.07;6.03;;;;;;;1.73;95.20;99321.22;1713980;82;21177;-66
2021/03/19 04:30:36;;;;;;;10.23;7.17;;;;;;;1.72;95.13;99321.75;1731205;82;21152;-68
2021/03/19 04:33:06;;;;;;;9.17;7.40;;;;;;;1.73;95.12;99326.02;1712635;83;21198;-66
2021/03/19 04:35:34;;;;;;;7.97;7.07;;;;;;;1.73;95.12;99329.17;1686452;83;21179;-66
2021/03/19 04:38:06;;;;;;;10.20;7.60;;;;;;;1.71;95.09;99330.72;1681050;85;21195;-66
2021/03/19 04:40:35;;;;;;;7.27;6.57;;;;;;;1.69;95.16;99334.57;1652010;86;21181;-65
2021/03/19 04:43:04;;;;;;;8.10;6.93;;;;;;;1.73;95.34;99335.80;1665915;85;21189;-66
2021/03/19 04:45:31;;;;;;;8.87;7.43;;;;;;;1.73;95.24;99332.64;1721690;82;22447;-66
2021/03/19 04:48:00;;;;;;;9.40;8.10;;;;;;;1.68;95.13;99336.91;1715692;82;21641;-66
2021/03/19 04:50:28;;;;;;;8.17;7.30;;;;;;;1.64;95.06;99335.17;1710440;83;21134;-67
2021/03/19 04:52:55;;;;;;;8.53;6.77;;;;;;;1.64;95.18;99342.31;1725936;82;21054;-66
2021/03/19 04:55:23;;;;;;;10.40;7.40;;;;;;;1.66;95.37;99340.29;1705562;82;21172;-66
2021/03/19 04:57:51;;;;;;;7.37;6.33;;;;;;;1.67;95.40;99342.75;1681003;85;21293;-67
2021/03/19 05:00:21;;;;;;;10.90;9.17;;;;;;;1.67;95.32;99347.23;1706029;82;21140;-66
2021/03/19 05:02:50;;;;;;;6.90;6.20;;;;;;;1.66;95.37;99345.08;1681234;85;21144;-68
2021/03/19 05:05:27;;;;;;;9.57;8.33;;;;;;;1.66;95.36;99346.41;1703152;84;21168;-67
2021/03/19 05:07:55;;;;;;;13.17;10.77;;;;;;;1.65;95.36;99343.95;1718700;82;21176;-64
2021/03/19 05:10:27;;;;;;;13.63;11.13;;;;;;;1.66;95.51;99340.29;1724694;82;22109;-66
2021/03/19 05:12:55;;;;;;;16.33;12.17;;;;;;;1.68;95.51;99344.86;1700273;82;30901;-65
2021/03/19 05:15:25;;;;;;;15.07;6.30;;;;;;;1.69;95.53;99344.67;1719624;83;21157;-66
2021/03/19 05:17:52;;;;;;;23.13;9.20;;;;;;;1.68;95.66;99348.33;1723221;83;20999;-66
2021/03/19 05:20:20;;;;;;;14.57;11.57;;;;;;;1.64;95.45;99348.94;1723091;83;21201;-65
2021/03/19 05:22:48;;;;;;;14.90;11.00;;;;;;;1.59;95.46;99353.52;1722726;83;21346;-67
2021/03/19 05:25:20;;;;;;;18.10;13.57;;;;;;;1.61;95.68;99354.65;1723014;83;21189;-67
2021/03/19 05:27:50;;;;;;;17.10;11.73;;;;;;;1.67;95.82;99354.67;1723291;82;21564;-66
2021/03/19 05:30:19;;;;;;;13.47;10.50;;;;;;;1.69;95.82;99347.32;1723276;83;21165;-65
2021/03/19 05:32:46;;;;;;;17.27;12.90;;;;;;;1.72;95.75;99351.42;1723269;83;21181;-67
2021/03/19 05:35:14;;;;;;;14.20;11.17;;;;;;;1.73;95.77;99358.33;1698759;83;21379;-65
2021/03/19 05:37:42;;;;;;;16.40;12.63;;;;;;;1.75;95.75;99360.28;1694186;84;21125;-67
2021/03/19 05:40:13;;;;;;;14.00;11.73;;;;;;;1.77;95.66;99362.74;1703057;83;21591;-64
2021/03/19 05:42:40;;;;;;;13.68;11.88;;;;;;;1.78;95.65;99359.05;1698993;83;21623;-67
2021/03/19 05:45:26;;;;;;;13.50;9.53;;;;;;;1.85;95.96;99363.36;1694301;84;21223;-67
2021/03/19 05:47:56;;;;;;;10.93;8.57;;;;;;;1.96;96.01;99367.27;1696360;83;22374;-66
2021/03/19 05:50:31;;;;;;;14.43;10.63;;;;;;;1.96;95.69;99365.43;1723167;83;21007;-64
2021/03/19 05:53:14;;;;;;;13.33;11.57;;;;;;;1.98;95.51;99369.19;1723224;82;21063;-66
2021/03/19 05:55:42;;;;;;;10.85;8.83;;;;;;;1.93;95.06;99374.27;1721061;83;21199;-66
2021/03/19 05:58:26;;;;;;;10.83;7.77;;;;;;;1.88;95.13;99369.58;1723184;83;21121;-65
2021/03/19 06:00:57;;;;;;;;;;;;;;;1.86;95.23;99372.14;1702290;84;22271;-65
2021/03/19 06:03:25;;;;;;;10.43;7.87;;;;;;;1.93;95.47;99378.25;1664778;86;20235;-66
2021/03/19 06:06:03;;;;;;;9.40;6.90;;;;;;;1.98;95.44;99381.94;1675911;85;21229;-65
2021/03/19 06:08:36;;;;;;;13.07;9.50;;;;;;;1.96;95.10;99378.69;1703493;84;21228;-65
2021/03/19 06:11:22;;;;;;;8.67;6.47;;;;;;;1.94;94.92;99379.39;1732317;82;21130;-65
2021/03/19 06:14:00;;;;;;;8.63;6.27;;;;;;;1.88;94.59;99380.69;1732145;82;22316;-63
2021/03/19 06:16:47;;;;;;;7.40;6.17;;;;;;;1.81;94.71;99390.48;1701409;84;21176;-65
2021/03/19 06:19:41;;;;;;;7.10;6.33;;;;;;;1.74;94.70;99388.63;1732373;82;21435;-65
2021/03/19 06:22:23;;;;;;;7.13;6.53;;;;;;;1.79;95.04;99395.16;1716752;82;21649;-63
2021/03/19 06:24:56;;;;;;;7.37;6.13;;;;;;;1.91;95.35;99394.89;1677725;85;21159;-65
2021/03/19 06:27:32;;;;;;;10.00;5.80;;;;;;;1.97;95.14;99398.04;1697179;84;21385;-66
2021/03/19 06:30:00;;;;;;;8.30;7.27;;;;;;;1.91;94.62;99401.02;1697543;84;21172;-64
2021/03/19 06:32:32;;;;;;;8.30;7.50;;;;;;;1.89;94.58;99408.34;1712115;84;21605;-65
2021/03/19 06:35:11;;;;;;;6.70;5.77;;;;;;;1.79;94.24;99403.92;1735089;82;21112;-66
2021/03/19 06:37:46;;;;;;;7.50;6.70;;;;;;;1.79;94.58;99409.23;1713036;82;21120;-65
2021/03/19 06:40:34;;;;;;;7.67;6.87;;;;;;;1.85;94.75;99413.73;1702802;83;21789;-65
2021/03/19 06:43:24;;;;;;;7.13;6.20;;;;;;;1.84;94.57;99416.58;1681081;85;21096;-64
2021/03/19 06:46:14;;;;;;;6.77;5.57;;;;;;;1.83;94.57;99410.97;1651968;86;21492;-65
2021/03/19 06:48:55;;;;;;;6.10;5.20;;;;;;;1.83;94.69;99416.27;1670982;85;21229;-65
2021/03/19 06:51:35;;;;;;;13.20;9.43;;;;;;;1.71;94.66;99408.09;1718149;82;21187;-65
2021/03/19 06:54:10;;;;;;;9.23;8.23;;;;;;;1.71;94.87;99415.55;1712319;83;21838;-65
2021/03/19 06:56:44;;;;;;;12.07;8.30;;;;;;;1.79;95.18;99411.88;1712517;83;21211;-66
2021/03/19 06:59:23;;;;;;;10.87;8.20;;;;;;;1.85;95.26;99413.73;1709640;83;21648;-65
2021/03/19 07:01:51;;;;;;;10.33;9.20;;;;;;;1.90;95.25;99414.47;1684490;83;21589;-67
2021/03/19 07:04:40;;;;;;;13.90;9.67;;;;;;;1.84;94.96;99416.58;1701377;83;21201;-64
2021/03/19 07:07:42;;;;;;;10.43;9.20;;;;;;;1.81;94.96;99420.97;1674333;84;21424;-65
2021/03/19 07:10:46;;;;;;;11.57;8.37;;;;;;;1.74;95.00;99419.11;1732542;81;21223;-65
2021/03/19 07:13:43;;;;;;;10.82;8.43;;;;;;;1.79;95.31;99415.03;1735154;82;21087;-68
2021/03/19 07:16:20;;;;;;;15.67;9.63;;;;;;;1.79;95.31;99415.03;1714251;83;21224;-63
2021/03/19 07:19:29;;;;;;;11.23;9.53;;;;;;;1.79;95.37;99417.69;1706658;83;21175;-63
2021/03/19 07:22:41;;;;;;;16.47;12.00;;;;;;;1.85;95.53;99422.20;1685112;84;22579;-66
2021/03/19 07:25:42;;;;;;;12.40;9.67;;;;;;;1.92;95.55;99426.48;1808907;77;22428;-65
2021/03/19 07:28:46;;;;;;;10.70;9.20;;;;;;;1.92;95.63;99429.14;1781087;80;21020;-65
2021/03/19 07:31:55;;;;;;;10.60;8.63;;;;;;;1.89;95.04;99430.06;1781340;80;20983;-65
2021/03/19 07:34:56;;;;;;;15.07;9.87;;;;;;;1.91;95.26;99435.48;1774947;80;21023;-64
2021/03/19 07:37:36;;;;;;;16.30;11.57;;;;;;;1.96;95.29;99433.55;1751153;80;21030;-65
2021/03/19 07:40:53;;;;;;;14.70;10.27;;;;;;;2.00;95.43;99427.66;1747335;80;20947;-65
2021/03/19 07:43:51;;;;;;;18.47;13.60;;;;;;;2.07;95.56;99431.63;1744139;82;20983;-67
2021/03/19 07:46:57;;;;;;;13.73;9.97;;;;;;;2.12;95.34;99431.84;1747463;82;22192;-65
2021/03/19 07:50:05;;;;;;;13.80;11.37;;;;;;;2.18;95.35;99434.51;1749825;82;20995;-65
2021/03/19 07:53:29;;;;;;;16.20;12.13;;;;;;;2.21;95.22;99431.95;1714778;82;21189;-65
2021/03/19 07:56:33;;;;;;;14.07;11.50;;;;;;;2.13;94.43;99434.80;1749147;82;21018;-67
2021/03/19 07:59:26;;;;;;;13.45;9.80;;;;;;;2.14;94.72;99434.61;1737349;82;21137;-67
2021/03/19 08:02:15;;;;;;;12.13;10.13;;;;;;;2.29;95.00;99433.61;1719461;82;22156;-66
2021/03/19 08:05:19;;;;;;;11.77;9.33;;;;;;;2.35;94.68;99441.55;1718530;83;21225;-66
2021/03/19 08:08:15;;;;;;;11.63;9.33;;;;;;;2.35;93.97;99432.81;1709125;83;21638;-68
2021/03/19 08:11:34;;;;;;;13.23;11.30;;;;;;;2.44;94.10;99439.03;1845659;75;22631;-67
2021/03/19 08:14:31;;;;;;;28.00;17.80;;;;;;;2.47;94.02;99443.11;1816621;79;21022;-68
2021/03/19 08:17:20;;;;;;;15.30;11.78;;;;;;;2.59;94.18;99440.95;1779482;79;21387;-68
2021/03/19 08:20:16;;;;;;;17.52;12.75;;;;;;;2.68;93.93;99433.62;1816578;79;20959;-67
2021/03/19 08:22:58;;;;;;;10.75;9.35;;;;;;;2.70;93.29;99445.34;1794469;79;21077;-68
2021/03/19 08:25:36;;;;;;;18.80;14.20;;;;;;;2.70;93.15;99444.84;1784344;80;21301;-67
2021/03/19 08:28:44;;;;;;;12.40;10.03;;;;;;;2.71;92.95;99440.34;1754160;80;21031;-67
2021/03/19 08:31:45;;;;;;;11.33;10.00;;;;;;;2.68;92.68;99440.77;1786489;79;21150;-68
2021/03/19 08:34:33;;;;;;;11.97;8.90;;;;;;;2.67;92.57;99444.44;1784938;80;21026;-69
2021/03/19 08:37:01;;;;;;;9.30;8.38;;;;;;;2.68;92.54;99448.73;1785531;80;21046;-67
2021/03/19 08:39:44;;;;;;;13.08;11.10;;;;;;;2.68;92.24;99447.41;1781876;80;21172;-66
2021/03/19 08:42:41;;;;;;;9.45;7.20;;;;;;;2.69;92.22;99451.16;1753891;81;21056;-68
2021/03/19 08:45:23;;;;;;;8.45;7.37;;;;;;;2.72;92.20;99451.28;1784686;80;21252;-69
2021/03/19 08:47:53;;;;;;;10.03;8.15;;;;;;;2.73;92.07;99456.39;1753878;81;21563;-68
2021/03/19 08:50:36;;;;;;;10.82;9.70;;;;;;;2.70;91.55;99456.78;1753837;81;21002;-68
2021/03/19 08:53:17;;;;;;;10.30;9.03;;;;;;;2.63;91.40;99455.48;1754118;81;21117;-67
2021/03/19 08:55:49;;;;;;;9.70;8.70;;;;;;;2.58;91.34;99461.91;1780976;80;21146;-67
2021/03/19 08:58:34;;;;;;;9.33;8.40;;;;;;;2.56;91.50;99454.64;1773158;80;21372;-67
2021/03/19 09:01:07;;;;;;;9.53;7.97;;;;;;;2.57;91.63;99454.14;1720694;82;21176;-68
2021/03/19 09:03:49;;;;;;;11.80;9.25;;;;;;;2.60;91.85;99451.06;1730021;82;21191;-66
2021/03/19 09:06:25;;;;;;;9.60;8.48;;;;;;;2.60;91.68;99461.17;1722572;82;21152;-66
2021/03/19 09:09:16;;;;;;;10.30;9.28;;;;;;;2.63;91.74;99456.80;1705188;84;21195;-67
2021/03/19 09:11:53;;;;;;;10.28;9.08;;;;;;;2.70;91.71;99459.44;1707117;83;21377;-66
2021/03/19 09:14:33;;;;;;;8.98;7.47;;;;;;;2.77;91.63;99459.45;1753392;81;21656;-68
2021/03/19 09:17:00;;;;;;;9.28;8.33;;;;;;;2.82;91.68;99455.67;1754524;81;21127;-66
2021/03/19 09:19:45;;;;;;;10.78;9.68;;;;;;;2.90;91.57;99458.11;1743809;82;21152;-67
2021/03/19 09:22:30;;;;;;;11.05;9.93;;;;;;;2.94;91.48;99460.14;1714144;82;21215;-66
2021/03/19 09:25:20;;;;;;;11.90;10.63;;;;;;;2.95;91.07;99468.93;1712996;83;21197;-67
2021/03/19 09:28:17;;;;;;;12.30;10.65;;;;;;;2.92;90.97;99463.53;1721267;82;21045;-66
2021/03/19 09:31:04;;;;;;;16.20;11.85;;;;;;;2.92;90.99;99464.86;1722696;83;21190;-67
2021/03/19 09:33:47;;;;;;;11.93;9.68;;;;;;;3.02;91.29;99462.57;1713024;83;21684;-65
2021/03/19 09:37:05;;;;;;;12.63;10.63;;;;;;;3.05;90.66;99461.36;1722916;83;21150;-67
2021/03/19 09:40:08;;;;;;;11.22;9.50;;;;;;;3.02;90.54;99469.22;1713011;82;21223;-68
2021/03/19 09:42:50;;;;;;;10.72;9.53;;;;;;;3.04;90.60;99473.83;1712903;83;21159;-66
2021/03/19 09:45:24;;;;;;;12.03;10.40;;;;;;;3.06;90.53;99470.97;1723447;81;21636;-68
2021/03/19 09:48:14;;;;;;;13.05;10.03;;;;;;;3.07;90.41;99474.73;1724143;82;21116;-65
2021/03/19 09:50:59;;;;;;;9.93;8.18;;;;;;;3.10;90.34;99478.83;1752411;81;21134;-67
2021/03/19 09:53:31;;;;;;;9.65;7.35;;;;;;;3.17;90.30;99476.14;1728587;81;21215;-66
2021/03/19 09:56:02;;;;;;;12.20;9.78;;;;;;;3.23;90.33;99480.13;1736207;82;21069;-68
2021/03/19 09:58:42;;;;;;;12.50;9.98;;;;;;;3.22;89.08;99471.02;1739993;82;21137;-69
2021/03/19 10:01:30;;;;;;;9.43;8.10;;;;;;;3.17;89.25;99474.30;1723062;82;21180;-66
2021/03/19 10:04:05;;;;;;;9.85;8.15;;;;;;;3.18;89.45;99472.47;1710263;83;21228;-66
2021/03/19 10:06:45;;;;;;;12.45;11.05;;;;;;;3.25;89.74;99475.94;1723222;81;21366;-67
2021/03/19 10:09:22;;;;;;;14.28;11.50;;;;;;;3.34;89.80;99476.84;1722706;83;21282;-67
2021/03/19 10:12:01;;;;;;;10.58;9.48;;;;;;;3.44;89.50;99474.56;1732061;82;21211;-65
2021/03/19 10:14:36;;;;;;;9.70;8.70;;;;;;;3.49;88.86;99481.91;1742632;82;21578;-68
2021/03/19 10:17:14;;;;;;;8.25;7.45;;;;;;;3.54;88.51;99485.27;1740775;82;21168;-67
2021/03/19 10:19:46;;;;;;;11.00;9.85;;;;;;;3.57;88.04;99478.19;1737230;82;21268;-67
2021/03/19 10:22:30;;;;;;;9.98;8.60;;;;;;;3.58;87.75;99474.01;1745994;81;21185;-66
2021/03/19 10:25:20;;;;;;;10.30;8.78;;;;;;;3.61;87.58;99479.41;1713427;82;21161;-67
2021/03/19 10:27:53;;;;;;;10.35;9.45;;;;;;;3.64;87.39;99481.16;1712432;83;21160;-66
2021/03/19 10:30:37;;;;;;;12.05;10.70;;;;;;;3.71;87.31;99477.94;1712983;83;21156;-65
2021/03/19 10:33:10;;;;;;;8.88;7.97;;;;;;;3.82;87.35;99480.45;1733802;82;21586;-67
2021/03/19 10:35:39;;;;;;;9.85;8.85;;;;;;;3.88;87.04;99485.77;1742143;82;21222;-66
2021/03/19 10:38:36;;;;;;;10.53;8.63;;;;;;;3.87;86.74;99495.27;1742002;82;21164;-68
2021/03/19 10:41:30;;;;;;;8.20;7.33;;;;;;;3.82;86.24;99485.27;1742577;82;21188;-67
2021/03/19 10:44:22;;;;;;;11.43;9.88;;;;;;;3.73;85.87;99493.19;1742058;82;21161;-66
2021/03/19 10:47:00;;;;;;;7.58;6.80;;;;;;;3.59;85.77;99488.94;1741943;82;21444;-68
2021/03/19 10:49:49;;;;;;;8.55;7.72;;;;;;;3.51;86.21;99488.64;1742032;82;21554;-66
2021/03/19 10:52:31;;;;;;;8.23;7.20;;;;;;;3.46;86.39;99488.45;1727392;82;21199;-67
2021/03/19 10:55:05;;;;;;;10.00;8.53;;;;;;;3.42;86.64;99485.09;1712949;83;21211;-67
2021/03/19 10:57:36;;;;;;;7.85;6.67;;;;;;;3.40;86.79;99484.50;1724464;80;21558;-66
2021/03/19 11:00:36;;;;;;;11.48;9.65;;;;;;;3.40;87.10;99481.84;1710055;82;21184;-71
2021/03/19 11:03:25;;;;;;;10.87;9.03;;;;;;;3.44;87.18;99483.88;1849719;76;22383;-70
2021/03/19 11:06:08;;;;;;;9.03;8.03;;;;;;;3.44;87.46;99483.88;1808782;77;21042;-69
2021/03/19 11:08:37;;;;;;;8.15;7.35;;;;;;;3.50;87.74;99487.00;1841275;77;21176;-68
2021/03/19 11:11:05;;;;;;;10.88;8.88;;;;;;;3.58;87.90;99481.98;1837715;78;21047;-70
2021/03/19 11:13:35;;;;;;;10.58;8.90;;;;;;;3.61;87.70;99486.87;1837769;78;20975;-70
2021/03/19 11:16:06;;;;;;;8.53;7.45;;;;;;;3.64;87.78;99476.34;1850962;77;21039;-70
2021/03/19 11:18:39;;;;;;;13.80;10.45;;;;;;;3.69;88.09;99484.52;1851109;77;20932;-68
2021/03/19 11:21:16;;;;;;;9.03;8.18;;;;;;;3.70;88.02;99486.94;1845225;77;21082;-70
2021/03/19 11:23:49;;;;;;;9.45;7.83;;;;;;;3.74;88.07;99494.80;1822817;78;22258;-66
2021/03/19 11:26:29;;;;;;;10.20;9.05;;;;;;;3.76;87.55;99485.28;1819638;78;20983;-67
2021/03/19 11:29:19;;;;;;;11.43;10.00;;;;;;;3.83;87.64;99481.59;1822486;77;21140;-68
2021/03/19 11:32:03;;;;;;;10.18;7.30;;;;;;;3.88;87.18;99488.94;1835485;77;21525;-66
2021/03/19 11:34:51;;;;;;;8.20;7.35;;;;;;;3.93;87.03;99482.47;1851222;77;21372;-67
2021/03/19 11:37:28;;;;;;;10.35;7.62;;;;;;;3.91;86.03;99491.98;1847061;77;21126;-65
2021/03/19 11:40:35;;;;;;;10.85;9.40;;;;;;;3.92;85.90;99481.64;1819116;77;21576;-65
2021/03/19 11:43:08;;;;;;;7.58;6.62;;;;;;;3.95;85.88;99477.73;1788444;80;21045;-67
2021/03/19 11:45:41;;;;;;;11.55;9.55;;;;;;;4.07;85.07;99475.23;1807440;78;21595;-64
2021/03/19 11:48:26;;;;;;;9.65;7.62;;;;;;;4.13;85.20;99486.33;1789053;78;21357;-66
2021/03/19 11:51:14;;;;;;;9.33;8.30;;;;;;;4.21;85.26;99485.59;1820869;78;21575;-67
2021/03/19 11:53:43;;;;;;;7.62;6.92;;;;;;;4.26;84.98;99480.95;1820519;78;21137;-67
2021/03/19 11:56:13;;;;;;;8.20;7.33;;;;;;;4.31;84.55;99483.80;1838715;77;21110;-67
2021/03/19 11:58:40;;;;;;;8.13;7.33;;;;;;;4.35;83.51;99480.48;1854352;77;21149;-67
2021/03/19 12:01:09;;;;;;;8.38;7.28;;;;;;;4.41;83.63;99478.81;1854196;77;21203;-65
2021/03/19 12:03:45;;;;;;;7.80;7.00;;;;;;;4.52;83.79;99480.77;1838378;77;21122;-65
2021/03/19 12:06:15;;;;;;;9.25;7.87;;;;;;;4.60;83.49;99480.52;1783407;79;21126;-65
2021/03/19 12:08:44;;;;;;;8.50;7.60;;;;;;;4.67;83.07;99491.11;1754402;81;21193;-64
2021/03/19 12:11:26;;;;;;;7.22;6.53;;;;;;;4.69;82.67;99485.88;1813162;78;21554;-66
2021/03/19 12:13:55;;;;;;;9.83;8.83;;;;;;;4.73;82.43;99479.59;1819533;78;21448;-65
2021/03/19 12:16:23;;;;;;;9.13;7.85;;;;;;;4.71;82.00;99473.14;1818806;78;21226;-64
2021/03/19 12:18:51;;;;;;;8.00;7.20;;;;;;;4.65;81.11;99476.66;1818661;78;21480;-67
2021/03/19 12:21:20;;;;;;;8.93;7.75;;;;;;;4.59;81.21;99475.41;1818222;78;21181;-66
2021/03/19 12:23:47;;;;;;;10.55;9.55;;;;;;;4.55;81.76;99479.53;1819127;77;21184;-67
2021/03/19 12:26:14;;;;;;;8.83;7.95;;;;;;;4.63;82.21;99477.41;1820816;77;21371;-66
2021/03/19 12:28:42;;;;;;;9.25;8.30;;;;;;;4.80;81.40;99477.67;1820168;77;21169;-68
2021/03/19 12:31:12;;;;;;;8.43;7.62;;;;;;;4.80;81.40;99477.67;1816318;77;21564;-66
2021/03/19 12:33:40;;;;;;;9.65;8.60;;;;;;;4.82;79.88;99480.44;1813288;79;21135;-67